Time;durP1;ratioP1;P1;durP2;ratioP2;P2;SDS_P1;SDS_P2;PMS_P1;PMS_P2;Temp;Humidity;BMP_temperature;BMP_pressure;BME280_temperature;BME280_humidity;BME280_pressure;Samples;Min_cycle;Max_cycle;Signal;HPM_P1;HPM_P2
2023/02/28 00:00:12;;;;;;;3.15;2.53;;;-3.40;92.70;;;;;;2059843;28;20233;-67
2023/02/28 00:01:17;;;;;;;4.03;2.80;;;-3.30;92.70;;;;;;2058007;28;20190;-79
2023/02/28 00:02:23;;;;;;;5.43;2.95;;;-3.30;92.10;;;;;;2043700;29;20230;-69
2023/02/28 00:03:28;;;;;;;4.55;2.80;;;-3.20;91.80;;;;;;2047595;28;20239;-72
2023/02/28 00:04:34;;;;;;;3.05;2.22;;;-3.10;91.40;;;;;;2068421;28;20190;-68
2023/02/28 00:05:39;;;;;;;3.28;2.97;;;-3.00;91.10;;;;;;2068909;28;20231;-68
2023/02/28 00:06:45;;;;;;;5.30;2.70;;;-3.10;91.10;;;;;;2068448;28;20189;-69
2023/02/28 00:07:50;;;;;;;3.13;2.55;;;-3.20;91.00;;;;;;2059058;28;20212;-68
2023/02/28 00:08:56;;;;;;;4.00;2.70;;;-3.20;91.40;;;;;;2061425;28;20196;-68
2023/02/28 00:10:02;;;;;;;3.10;2.50;;;-3.20;91.50;;;;;;2069223;28;20657;-68
2023/02/28 00:11:11;;;;;;;5.30;2.58;;;-3.20;91.80;;;;;;2068426;28;20197;-68
2023/02/28 00:12:14;;;;;;;4.15;2.45;;;-3.10;92.10;;;;;;2064298;28;20241;-68
2023/02/28 00:13:16;;;;;;;3.75;2.67;;;-3.10;91.70;;;;;;2068300;28;20197;-68
2023/02/28 00:14:22;;;;;;;2.75;2.55;;;-3.10;91.30;;;;;;2068464;28;20572;-68
2023/02/28 00:15:27;;;;;;;3.20;2.70;;;-3.10;91.10;;;;;;2064638;28;20233;-68
2023/02/28 00:16:33;;;;;;;3.10;2.75;;;-3.20;91.50;;;;;;2068521;28;20180;-67
2023/02/28 00:17:38;;;;;;;3.55;2.60;;;-3.20;91.80;;;;;;2067885;28;20178;-67
2023/02/28 00:18:44;;;;;;;3.47;2.50;;;-3.20;91.80;;;;;;2065099;28;20181;-68
2023/02/28 00:19:51;;;;;;;4.07;2.58;;;-3.10;91.60;;;;;;2068542;28;20181;-68
2023/02/28 00:20:55;;;;;;;3.42;2.40;;;-3.10;91.60;;;;;;2068496;28;20225;-68
2023/02/28 00:22:00;;;;;;;3.40;2.78;;;-3.00;91.40;;;;;;2065368;28;20671;-68
2023/02/28 00:23:04;;;;;;;3.60;2.60;;;-3.00;91.30;;;;;;2068248;28;20603;-68
2023/02/28 00:24:09;;;;;;;5.82;3.47;;;-3.00;91.80;;;;;;2068594;28;20205;-68
2023/02/28 00:25:19;;;;;;;5.20;3.10;;;-3.20;91.90;;;;;;2064503;28;20192;-68
2023/02/28 00:26:22;;;;;;;2.65;2.25;;;-3.20;92.60;;;;;;2061156;28;20185;-68
2023/02/28 00:27:27;;;;;;;3.47;2.63;;;-3.20;92.60;;;;;;2067978;28;20604;-68
2023/02/28 00:28:32;;;;;;;6.30;3.28;;;-3.20;92.50;;;;;;2067234;28;20261;-68
2023/02/28 00:29:38;;;;;;;3.72;2.58;;;-3.30;92.50;;;;;;2068185;28;20188;-68
2023/02/28 00:30:43;;;;;;;3.83;2.70;;;-3.20;92.60;;;;;;2068241;28;20356;-68
2023/02/28 00:31:48;;;;;;;4.40;3.25;;;-3.20;92.50;;;;;;2060863;28;20191;-67
2023/02/28 00:32:54;;;;;;;5.88;2.65;;;-3.20;92.80;;;;;;2068444;28;20181;-68
2023/02/28 00:33:59;;;;;;;3.55;2.72;;;-3.10;93.00;;;;;;2056325;28;20281;-68
2023/02/28 00:35:06;;;;;;;4.68;2.83;;;-3.10;92.50;;;;;;2061155;28;20189;-68
2023/02/28 00:36:11;;;;;;;3.42;2.58;;;-3.10;92.50;;;;;;2051500;28;20226;-68
2023/02/28 00:37:15;;;;;;;3.78;2.65;;;-3.20;92.60;;;;;;2042967;28;20634;-68
2023/02/28 00:38:21;;;;;;;5.07;3.05;;;-3.10;92.50;;;;;;2050892;28;20202;-68
2023/02/28 00:39:26;;;;;;;4.93;2.97;;;-3.10;92.50;;;;;;2059227;28;20183;-68
2023/02/28 00:40:32;;;;;;;3.78;2.75;;;-3.20;92.60;;;;;;2065013;28;20299;-68
2023/02/28 00:41:37;;;;;;;4.47;3.22;;;-3.10;92.60;;;;;;2068510;28;20271;-68
2023/02/28 00:42:42;;;;;;;4.50;3.08;;;-3.10;92.50;;;;;;2068276;28;20324;-68
2023/02/28 00:43:48;;;;;;;4.68;2.80;;;-3.10;93.00;;;;;;2065266;28;20194;-68
2023/02/28 00:44:54;;;;;;;4.78;2.95;;;-3.00;92.90;;;;;;2068385;28;20323;-68
2023/02/28 00:45:59;;;;;;;4.68;2.70;;;-3.00;92.80;;;;;;2068425;28;20201;-68
2023/02/28 00:47:04;;;;;;;6.75;2.80;;;-2.90;92.50;;;;;;2068300;28;20185;-68
2023/02/28 00:48:09;;;;;;;3.85;3.00;;;-2.90;92.20;;;;;;2067852;28;20212;-68
2023/02/28 00:49:15;;;;;;;4.00;2.92;;;-2.90;92.10;;;;;;2068605;28;20185;-68
2023/02/28 00:50:21;;;;;;;5.20;3.15;;;-2.90;92.30;;;;;;2067401;28;20208;-69
2023/02/28 00:51:26;;;;;;;4.28;3.00;;;-3.00;92.50;;;;;;2067590;28;20227;-68
2023/02/28 00:52:31;;;;;;;4.13;2.90;;;-3.00;92.60;;;;;;2060551;28;20284;-67
2023/02/28 00:53:36;;;;;;;4.78;2.80;;;-3.00;92.50;;;;;;2068373;28;20189;-67
2023/02/28 00:54:42;;;;;;;3.33;2.55;;;-3.00;92.50;;;;;;2068859;28;20638;-68
2023/02/28 00:55:49;;;;;;;3.25;2.67;;;-3.00;92.70;;;;;;2064237;28;20377;-67
2023/02/28 00:56:54;;;;;;;6.40;2.78;;;-3.00;92.50;;;;;;2067716;28;20236;-67
2023/02/28 00:57:59;;;;;;;5.07;3.30;;;-2.90;92.40;;;;;;2067090;28;20881;-67
2023/02/28 00:59:05;;;;;;;3.92;2.90;;;-2.80;92.10;;;;;;2064509;28;20173;-67
2023/02/28 01:00:10;;;;;;;3.47;2.72;;;-2.90;92.10;;;;;;2068354;28;20222;-67
2023/02/28 01:01:14;;;;;;;3.05;2.22;;;-3.00;92.50;;;;;;2068274;28;20181;-68
2023/02/28 01:02:22;;;;;;;3.25;2.58;;;-3.10;92.70;;;;;;2064723;28;20216;-68
2023/02/28 01:03:26;;;;;;;6.32;2.72;;;-3.10;93.00;;;;;;2067553;28;20181;-68
2023/02/28 01:04:32;;;;;;;3.65;3.13;;;-3.00;93.10;;;;;;2068493;28;20185;-67
2023/02/28 01:05:37;;;;;;;4.85;2.95;;;-3.10;93.70;;;;;;2068955;28;20190;-67
2023/02/28 01:06:43;;;;;;;4.63;3.63;;;-3.10;93.60;;;;;;2068938;28;20185;-67
2023/02/28 01:07:48;;;;;;;5.07;3.00;;;-3.20;93.80;;;;;;2067261;28;20208;-68
2023/02/28 01:08:53;;;;;;;3.38;2.88;;;-3.20;94.10;;;;;;2067590;28;20821;-67
2023/02/28 01:09:59;;;;;;;3.45;2.83;;;-3.20;93.90;;;;;;2068405;28;20225;-67
2023/02/28 01:11:13;;;;;;;3.03;2.55;;;-3.10;93.90;;;;;;2064555;28;20219;-67
2023/02/28 01:12:15;;;;;;;5.93;2.72;;;-3.10;93.70;;;;;;2067593;28;20183;-67
2023/02/28 01:13:20;;;;;;;4.75;2.90;;;-3.00;93.70;;;;;;2052984;28;20758;-68
2023/02/28 01:14:25;;;;;;;4.72;3.03;;;-3.00;93.40;;;;;;2062813;28;20287;-67
2023/02/28 01:15:31;;;;;;;5.10;2.97;;;-3.00;93.20;;;;;;2069394;28;20205;-67
2023/02/28 01:16:36;;;;;;;3.83;2.67;;;-3.00;93.20;;;;;;2061147;28;20280;-67
2023/02/28 01:17:42;;;;;;;3.53;2.55;;;-2.90;93.00;;;;;;2054227;28;20190;-68
2023/02/28 01:18:47;;;;;;;4.40;2.67;;;-2.90;93.10;;;;;;2069173;28;20237;-68
2023/02/28 01:19:55;;;;;;;3.45;2.58;;;-3.00;93.00;;;;;;2065920;28;20185;-68
2023/02/28 01:20:58;;;;;;;3.60;2.72;;;-2.90;93.10;;;;;;2069574;28;20201;-68
2023/02/28 01:22:06;;;;;;;3.03;2.40;;;-2.80;93.20;;;;;;2069046;28;20196;-68
2023/02/28 01:23:09;;;;;;;3.70;2.88;;;-2.70;92.80;;;;;;2062325;28;20591;-68
2023/02/28 01:24:14;;;;;;;3.47;2.60;;;-2.70;92.50;;;;;;2061932;28;20219;-69
2023/02/28 01:25:20;;;;;;;3.65;2.75;;;-2.80;92.50;;;;;;2069249;28;20341;-68
2023/02/28 01:26:25;;;;;;;3.47;2.75;;;-2.70;92.50;;;;;;2066377;28;20203;-68
2023/02/28 01:27:26;;;;;;;3.20;2.80;;;-2.90;93.00;;;;;;2069553;28;20212;-68
2023/02/28 01:28:32;;;;;;;3.70;2.83;;;-2.90;93.00;;;;;;2069494;28;20181;-68
2023/02/28 01:29:38;;;;;;;5.07;3.03;;;-2.90;93.30;;;;;;2066056;28;20176;-68
2023/02/28 01:30:49;;;;;;;4.35;2.83;;;-2.90;93.10;;;;;;2069495;28;20259;-67
2023/02/28 01:31:52;;;;;;;3.65;2.75;;;-2.90;93.00;;;;;;2068885;28;20658;-67
2023/02/28 01:32:58;;;;;;;6.43;3.33;;;-2.90;92.90;;;;;;2069586;28;20188;-69
2023/02/28 01:34:03;;;;;;;4.60;2.95;;;-2.90;93.40;;;;;;2069640;28;20581;-68
2023/02/28 01:35:09;;;;;;;3.40;2.70;;;-3.00;93.40;;;;;;2069074;28;20271;-67
2023/02/28 01:36:13;;;;;;;4.40;2.57;;;-2.90;93.50;;;;;;2069312;28;20585;-67
2023/02/28 01:37:19;;;;;;;5.18;3.17;;;-2.90;93.60;;;;;;2069613;28;20228;-67
2023/02/28 01:38:24;;;;;;;4.57;2.97;;;-2.80;93.30;;;;;;2068780;28;20256;-67
2023/02/28 01:39:30;;;;;;;3.88;3.00;;;-2.90;93.50;;;;;;2069394;28;20239;-67
2023/02/28 01:40:35;;;;;;;4.13;3.00;;;-2.90;93.40;;;;;;2061385;28;20233;-67
2023/02/28 01:41:40;;;;;;;3.47;2.70;;;-2.90;93.50;;;;;;2058587;28;20249;-67
2023/02/28 01:42:46;;;;;;;4.80;3.08;;;-2.90;93.50;;;;;;2069570;28;20189;-69
2023/02/28 01:44:03;;;;;;;7.22;3.05;;;-3.00;94.10;;;;;;2069591;28;20189;-67
2023/02/28 01:45:30;;;;;;;2.90;2.50;;;-3.00;93.90;;;;;;2058680;28;20177;-68
2023/02/28 01:46:36;;;;;;;4.72;2.60;;;-2.90;93.50;;;;;;2060199;28;20625;-67
2023/02/28 01:47:43;;;;;;;4.95;3.00;;;-2.80;93.40;;;;;;2057850;28;20190;-67
2023/02/28 01:48:59;;;;;;;5.03;2.97;;;-2.90;93.30;;;;;;2068233;28;20187;-69
2023/02/28 01:50:12;;;;;;;4.45;2.72;;;-2.90;93.40;;;;;;2066377;28;20177;-67
2023/02/28 01:51:26;;;;;;;3.22;2.90;;;-2.90;93.70;;;;;;2068914;28;20580;-68
2023/02/28 01:52:32;;;;;;;2.65;2.38;;;-3.00;93.90;;;;;;2061403;28;20192;-67
2023/02/28 01:53:46;;;;;;;3.70;2.70;;;-3.10;94.10;;;;;;2069331;28;20188;-67
2023/02/28 01:54:56;;;;;;;3.15;2.67;;;-3.10;94.20;;;;;;2069418;28;20188;-67
2023/02/28 01:56:06;;;;;;;3.97;2.80;;;-3.20;94.60;;;;;;2059150;28;20261;-68
2023/02/28 01:57:16;;;;;;;4.15;2.65;;;-3.20;95.00;;;;;;2062421;28;20189;-67
2023/02/28 01:58:22;;;;;;;5.45;3.05;;;-3.10;94.60;;;;;;2058853;28;20188;-67
2023/02/28 01:59:48;;;;;;;3.75;2.90;;;-3.10;94.40;;;;;;2062188;28;20190;-68
2023/02/28 02:00:54;;;;;;;3.03;2.67;;;-3.00;94.20;;;;;;2063245;28;20212;-67
2023/02/28 02:02:01;;;;;;;3.22;2.70;;;-3.00;94.10;;;;;;2062664;28;20735;-67
2023/02/28 02:03:12;;;;;;;4.75;2.78;;;-2.90;93.90;;;;;;2062214;28;20182;-68
2023/02/28 02:04:17;;;;;;;3.28;2.78;;;-2.80;94.00;;;;;;2060345;28;20674;-67
2023/02/28 02:05:30;;;;;;;3.90;2.75;;;-2.90;94.20;;;;;;2058713;28;20640;-67
2023/02/28 02:06:45;;;;;;;3.60;2.70;;;-2.90;94.40;;;;;;2060783;28;20307;-70
2023/02/28 02:07:55;;;;;;;3.53;2.72;;;-2.90;94.20;;;;;;2060453;28;20271;-67
2023/02/28 02:08:56;;;;;;;4.25;2.88;;;-3.00;94.20;;;;;;2061822;28;20194;-67
2023/02/28 02:10:21;;;;;;;5.60;3.28;;;-2.90;94.20;;;;;;2064979;28;20187;-67
2023/02/28 02:11:29;;;;;;;3.35;2.50;;;-3.00;94.40;;;;;;2057878;28;20316;-68
2023/02/28 02:13:18;;;;;;;3.53;2.58;;;-3.00;94.90;;;;;;2054266;28;20586;-67
2023/02/28 02:15:01;;;;;;;2.90;2.50;;;-3.00;95.10;;;;;;2067405;28;20193;-67
2023/02/28 02:16:34;;;;;;;3.42;2.47;;;-2.90;94.80;;;;;;2063651;28;20211;-67
2023/02/28 02:17:51;;;;;;;4.45;2.60;;;-3.00;95.60;;;;;;2066963;28;20184;-67
2023/02/28 02:19:44;;;;;;;6.35;3.08;;;-3.10;95.90;;;;;;2061552;28;20184;-68
2023/02/28 02:21:27;;;;;;;3.22;2.28;;;-3.20;96.30;;;;;;2067495;28;20295;-68
2023/02/28 02:23:18;;;;;;;4.15;2.72;;;-3.20;96.70;;;;;;2066120;28;20197;-69
2023/02/28 02:25:01;;;;;;;3.53;2.78;;;-3.20;97.40;;;;;;2065257;28;20181;-68
2023/02/28 02:26:48;;;;;;;4.18;2.60;;;-3.20;97.40;;;;;;2068027;28;20232;-68
2023/02/28 02:28:41;;;;;;;3.97;3.25;;;-3.20;98.10;;;;;;2067531;28;20184;-68
2023/02/28 02:30:24;;;;;;;4.47;2.85;;;-3.20;98.30;;;;;;2059960;28;20301;-68
2023/02/28 02:31:46;;;;;;;5.22;3.00;;;-3.30;98.00;;;;;;2067277;28;20196;-68
2023/02/28 02:33:37;;;;;;;6.55;2.90;;;-3.40;99.10;;;;;;2058170;28;20268;-67
2023/02/28 02:34:56;;;;;;;6.82;3.53;;;-3.40;99.90;;;;;;2066193;28;20179;-68
2023/02/28 02:36:23;;;;;;;3.85;2.90;;;-3.40;99.90;;;;;;2066315;28;20200;-67
2023/02/28 02:38:00;;;;;;;4.13;3.13;;;-3.40;99.90;;;;;;2060417;28;20207;-68
2023/02/28 02:39:19;;;;;;;4.97;2.92;;;-3.40;99.90;;;;;;2068299;28;20549;-68
2023/02/28 02:40:38;;;;;;;4.00;2.92;;;-3.30;99.90;;;;;;2068524;28;20221;-68
2023/02/28 02:41:53;;;;;;;3.63;2.85;;;-3.30;99.90;;;;;;2062082;28;20645;-68
2023/02/28 02:43:14;;;;;;;4.65;3.10;;;-3.30;99.70;;;;;;2059792;28;20724;-67
2023/02/28 02:44:27;;;;;;;5.13;2.78;;;-3.30;99.80;;;;;;2065616;28;20652;-68
2023/02/28 02:45:44;;;;;;;4.32;3.15;;;-3.40;99.90;;;;;;2058619;28;20225;-67
2023/02/28 02:46:55;;;;;;;6.60;3.30;;;-3.40;99.90;;;;;;2056363;28;20188;-68
2023/02/28 02:48:03;;;;;;;4.28;3.00;;;-3.30;99.90;;;;;;2050719;28;20606;-68
2023/02/28 02:49:09;;;;;;;5.47;3.65;;;-3.20;99.80;;;;;;2053321;28;20686;-67
2023/02/28 02:50:25;;;;;;;7.03;3.65;;;-3.20;99.60;;;;;;2051466;28;20193;-68
2023/02/28 02:51:32;;;;;;;5.38;3.33;;;-3.30;99.20;;;;;;2061767;28;20224;-68
2023/02/28 02:52:45;;;;;;;4.75;3.53;;;-3.40;99.50;;;;;;2058616;28;20175;-68
2023/02/28 02:54:11;;;;;;;5.07;3.45;;;-3.40;99.90;;;;;;2068283;28;20576;-68
2023/02/28 02:55:20;;;;;;;5.53;3.05;;;-3.40;99.90;;;;;;2059534;28;20182;-68
2023/02/28 02:56:31;;;;;;;5.18;3.30;;;-3.50;99.90;;;;;;2057825;28;20199;-68
2023/02/28 02:57:46;;;;;;;5.90;3.63;;;-3.50;99.90;;;;;;2068008;28;20204;-68
2023/02/28 02:58:55;;;;;;;4.90;3.30;;;-3.50;99.90;;;;;;2068868;28;20627;-68
2023/02/28 03:00:05;;;;;;;3.83;3.15;;;-3.40;99.90;;;;;;2058215;28;20193;-68
2023/02/28 03:01:27;;;;;;;4.88;3.40;;;-3.50;99.90;;;;;;2062058;28;20235;-67
2023/02/28 03:02:35;;;;;;;4.53;3.53;;;-3.50;99.90;;;;;;2066163;28;20198;-67
2023/02/28 03:03:40;;;;;;;5.07;3.50;;;-3.40;99.90;;;;;;2068393;28;20646;-67
2023/02/28 03:04:52;;;;;;;4.88;2.97;;;-3.40;99.90;;;;;;2061664;28;20228;-68
2023/02/28 03:06:01;;;;;;;4.63;3.33;;;-3.40;99.90;;;;;;2054307;28;20721;-69
2023/02/28 03:07:04;;;;;;;4.15;3.33;;;-3.30;99.90;;;;;;2046736;28;20234;-68
2023/02/28 03:08:09;;;;;;;5.22;3.20;;;-3.40;99.90;;;;;;2060875;28;20223;-68
2023/02/28 03:09:14;;;;;;;8.40;3.67;;;-3.40;99.90;;;;;;2061662;28;20193;-67
2023/02/28 03:10:41;;;;;;;4.57;3.17;;;-3.40;99.90;;;;;;2061294;28;20194;-68
2023/02/28 03:11:47;;;;;;;5.50;3.30;;;-3.40;99.90;;;;;;2066338;28;20683;-68
2023/02/28 03:13:08;;;;;;;5.53;3.50;;;-3.30;99.90;;;;;;2068076;28;20248;-68
2023/02/28 03:14:12;;;;;;;3.97;3.22;;;-3.50;99.90;;;;;;2053254;28;20709;-68
2023/02/28 03:15:40;;;;;;;4.45;3.40;;;-3.40;99.90;;;;;;2057674;28;20185;-67
2023/02/28 03:17:38;;;;;;;5.43;3.65;;;-3.50;99.90;;;;;;2065682;28;20189;-67
2023/02/28 03:19:06;;;;;;;4.75;3.20;;;-3.40;99.90;;;;;;2066698;28;20252;-68
2023/02/28 03:20:39;;;;;;;4.55;3.25;;;-3.50;99.90;;;;;;2066623;28;20188;-68
2023/02/28 03:22:09;;;;;;;4.93;3.42;;;-3.50;99.90;;;;;;2068894;28;20186;-67
2023/02/28 03:23:21;;;;;;;5.32;3.58;;;-3.40;99.90;;;;;;2065163;28;20244;-68
2023/02/28 03:24:37;;;;;;;4.82;2.95;;;-3.50;99.90;;;;;;2061826;28;20273;-67
2023/02/28 03:26:01;;;;;;;4.90;3.38;;;-3.50;99.90;;;;;;2066574;28;20288;-68
2023/02/28 03:27:29;;;;;;;3.80;3.10;;;-3.60;99.90;;;;;;2065872;28;20184;-68
2023/02/28 03:28:45;;;;;;;6.05;3.67;;;-3.60;99.90;;;;;;2062584;28;20213;-68
2023/02/28 03:30:04;;;;;;;5.63;3.85;;;-3.50;99.90;;;;;;2060469;28;20593;-68
2023/02/28 03:31:17;;;;;;;5.63;3.30;;;-3.40;99.90;;;;;;2059484;28;20238;-67
2023/02/28 03:32:53;;;;;;;4.47;3.50;;;-3.40;99.90;;;;;;2068275;28;20289;-68
2023/02/28 03:34:24;;;;;;;4.50;3.20;;;-3.40;99.90;;;;;;2057349;28;20185;-67
2023/02/28 03:35:44;;;;;;;6.88;4.22;;;-3.40;99.90;;;;;;2059289;28;20260;-68
2023/02/28 03:36:58;;;;;;;4.30;3.28;;;-3.60;99.90;;;;;;2066019;28;20199;-68
2023/02/28 03:38:16;;;;;;;6.15;3.35;;;-3.50;99.90;;;;;;2063729;28;20662;-69
2023/02/28 03:39:58;;;;;;;4.40;3.53;;;-3.40;99.90;;;;;;2062438;28;20212;-67
2023/02/28 03:41:17;;;;;;;4.18;3.40;;;-3.30;99.90;;;;;;2066578;28;20320;-68
2023/02/28 03:42:27;;;;;;;5.40;3.65;;;-3.30;99.90;;;;;;2066171;28;20222;-68
2023/02/28 03:43:38;;;;;;;5.15;3.22;;;-3.30;99.90;;;;;;2065624;28;20594;-68
2023/02/28 03:44:53;;;;;;;5.88;4.03;;;-3.20;99.90;;;;;;2061964;28;20177;-68
2023/02/28 03:46:05;;;;;;;5.05;3.83;;;-3.20;99.90;;;;;;2052089;28;20196;-68
2023/02/28 03:47:16;;;;;;;4.97;3.22;;;-3.20;99.90;;;;;;2051854;28;20212;-67
2023/02/28 03:48:32;;;;;;;6.15;4.07;;;-3.30;99.90;;;;;;2063591;28;20288;-68
2023/02/28 03:49:57;;;;;;;5.28;3.97;;;-3.30;99.90;;;;;;2064489;28;20180;-68
2023/02/28 03:51:03;;;;;;;6.15;3.65;;;-3.30;99.90;;;;;;2060115;28;20222;-68
2023/02/28 03:52:08;;;;;;;6.18;4.05;;;-3.40;99.90;;;;;;2060901;28;20181;-67
2023/02/28 03:53:36;;;;;;;4.95;3.42;;;-3.30;99.90;;;;;;2068133;28;20614;-68
2023/02/28 03:54:50;;;;;;;7.90;4.18;;;-3.20;99.90;;;;;;2063491;28;20211;-68
2023/02/28 03:56:24;;;;;;;5.80;3.80;;;-3.20;99.90;;;;;;2068026;28;20727;-68
2023/02/28 03:58:01;;;;;;;4.28;3.28;;;-3.20;99.90;;;;;;2069467;28;20181;-68
2023/02/28 03:59:18;;;;;;;5.28;3.55;;;-3.30;99.90;;;;;;2067031;28;20298;-67
2023/02/28 04:00:39;;;;;;;5.97;3.65;;;-3.40;99.90;;;;;;2060170;28;20222;-68
2023/02/28 04:01:48;;;;;;;7.50;4.18;;;-3.50;99.90;;;;;;2065175;28;20331;-67
2023/02/28 04:02:54;;;;;;;5.75;3.65;;;-3.50;99.90;;;;;;2059907;28;20186;-68
2023/02/28 04:04:01;;;;;;;5.57;3.97;;;-3.50;99.90;;;;;;2058258;28;20671;-68
2023/02/28 04:05:05;;;;;;;6.13;4.07;;;-3.60;99.90;;;;;;2067961;28;20178;-67
2023/02/28 04:06:18;;;;;;;6.47;3.95;;;-3.50;99.90;;;;;;2067942;28;20193;-68
2023/02/28 04:07:24;;;;;;;6.30;4.25;;;-3.70;99.90;;;;;;2065583;28;20214;-67
2023/02/28 04:08:30;;;;;;;5.05;3.60;;;-3.70;99.90;;;;;;2060879;28;20261;-68
2023/02/28 04:09:36;;;;;;;6.28;4.25;;;-3.60;99.90;;;;;;2064775;28;20196;-67
2023/02/28 04:10:43;;;;;;;6.38;4.18;;;-3.60;99.90;;;;;;2067916;28;20248;-67
2023/02/28 04:11:52;;;;;;;6.28;4.07;;;-3.60;99.90;;;;;;2061310;28;20184;-67
2023/02/28 04:12:58;;;;;;;7.68;4.20;;;-3.60;99.90;;;;;;2065729;28;20184;-68
2023/02/28 04:14:06;;;;;;;7.35;4.10;;;-3.60;99.90;;;;;;2068650;28;20197;-69
2023/02/28 04:15:11;;;;;;;4.15;3.50;;;-3.60;99.90;;;;;;2065255;28;20184;-68
2023/02/28 04:16:16;;;;;;;6.05;3.92;;;-3.60;99.90;;;;;;2068331;28;20216;-67
2023/02/28 04:17:21;;;;;;;4.43;3.75;;;-3.70;99.90;;;;;;2068687;28;20180;-70
2023/02/28 04:18:27;;;;;;;6.05;3.97;;;-3.70;99.90;;;;;;2068435;28;20189;-68
2023/02/28 04:19:32;;;;;;;5.78;4.05;;;-3.70;99.90;;;;;;2069134;28;20196;-67
2023/02/28 04:20:38;;;;;;;6.15;4.30;;;-3.60;99.90;;;;;;2067687;28;20246;-68
2023/02/28 04:21:52;;;;;;;6.22;4.30;;;-3.60;99.90;;;;;;2068083;28;20227;-68
2023/02/28 04:22:54;;;;;;;4.82;3.60;;;-3.60;99.90;;;;;;2067712;28;20177;-67
2023/02/28 04:24:02;;;;;;;5.30;3.55;;;-3.60;99.90;;;;;;2053152;28;20281;-67
2023/02/28 04:25:06;;;;;;;6.90;4.95;;;-3.50;99.90;;;;;;2061740;28;20567;-67
2023/02/28 04:26:09;;;;;;;5.72;4.10;;;-3.50;99.90;;;;;;2066289;28;20236;-68
2023/02/28 04:27:15;;;;;;;5.78;4.68;;;-3.50;99.90;;;;;;2068905;28;20228;-67
2023/02/28 04:28:20;;;;;;;7.90;3.97;;;-3.60;99.90;;;;;;2067699;28;20220;-67
2023/02/28 04:29:32;;;;;;;5.65;4.05;;;-3.60;99.90;;;;;;2068218;28;20271;-67
2023/02/28 04:30:34;;;;;;;4.43;3.92;;;-3.60;99.90;;;;;;2067667;28;20231;-67
2023/02/28 04:31:38;;;;;;;6.35;4.40;;;-3.70;99.90;;;;;;2067823;28;20236;-67
2023/02/28 04:32:43;;;;;;;5.35;4.20;;;-3.70;99.90;;;;;;2059539;28;20208;-67
2023/02/28 04:33:49;;;;;;;5.25;3.92;;;-3.60;99.90;;;;;;2060716;28;20189;-67
2023/02/28 04:34:54;;;;;;;6.50;4.57;;;-3.60;99.90;;;;;;2068966;28;20649;-67
2023/02/28 04:36:03;;;;;;;7.57;4.25;;;-3.60;99.90;;;;;;2064433;28;20671;-67
2023/02/28 04:37:05;;;;;;;6.07;4.00;;;-3.60;99.90;;;;;;2060712;28;20184;-67
2023/02/28 04:38:09;;;;;;;7.90;4.32;;;-3.60;99.90;;;;;;2059613;28;20180;-68
2023/02/28 04:39:18;;;;;;;7.35;4.63;;;-3.60;99.90;;;;;;2064484;28;20642;-67
2023/02/28 04:40:21;;;;;;;5.63;4.00;;;-3.60;99.90;;;;;;2067685;28;20191;-67
2023/02/28 04:41:26;;;;;;;5.72;4.47;;;-3.50;99.90;;;;;;2067854;28;20190;-68
2023/02/28 04:42:35;;;;;;;6.65;4.05;;;-3.60;99.90;;;;;;2065181;28;20724;-67
2023/02/28 04:43:41;;;;;;;8.50;4.90;;;-3.60;99.90;;;;;;2068030;28;20691;-67
2023/02/28 04:44:47;;;;;;;9.15;4.97;;;-3.70;99.90;;;;;;2064566;28;20296;-67
2023/02/28 04:45:54;;;;;;;6.97;4.78;;;-3.70;99.90;;;;;;2068108;28;20213;-67
2023/02/28 04:46:58;;;;;;;4.75;3.97;;;-3.70;99.90;;;;;;2068057;28;20184;-67
2023/02/28 04:48:03;;;;;;;8.93;4.30;;;-3.70;99.90;;;;;;2064472;28;20188;-67
2023/02/28 04:49:04;;;;;;;5.25;4.05;;;-3.70;99.90;;;;;;2069614;28;20195;-68
2023/02/28 04:50:10;;;;;;;5.65;4.05;;;-3.60;99.90;;;;;;2069557;28;20189;-67
2023/02/28 04:51:19;;;;;;;7.55;4.93;;;-3.60;99.90;;;;;;2057189;28;20189;-67
2023/02/28 04:52:21;;;;;;;6.65;4.47;;;-3.50;99.90;;;;;;2055374;28;20189;-68
2023/02/28 04:53:28;;;;;;;6.13;4.35;;;-3.50;99.90;;;;;;2061713;28;20202;-67
2023/02/28 04:54:32;;;;;;;6.47;4.30;;;-3.50;99.90;;;;;;2065802;28;20196;-68
2023/02/28 04:55:39;;;;;;;6.80;4.63;;;-3.50;99.90;;;;;;2069377;28;20203;-67
2023/02/28 04:56:45;;;;;;;6.63;4.38;;;-3.60;99.90;;;;;;2069734;28;20615;-68
2023/02/28 04:57:51;;;;;;;7.55;4.32;;;-3.60;99.90;;;;;;2068709;28;20281;-68
2023/02/28 04:58:56;;;;;;;8.30;4.20;;;-3.60;99.90;;;;;;2069640;28;20237;-68
2023/02/28 05:00:06;;;;;;;7.20;4.75;;;-3.60;99.90;;;;;;2066305;28;20189;-68
2023/02/28 05:01:29;;;;;;;5.63;4.50;;;-3.50;99.90;;;;;;2070201;28;20216;-68
2023/02/28 05:02:35;;;;;;;6.53;3.90;;;-3.40;99.90;;;;;;2069038;28;20174;-68
2023/02/28 05:03:42;;;;;;;6.07;4.10;;;-3.50;99.90;;;;;;2060842;28;20195;-67
2023/02/28 05:04:47;;;;;;;6.10;4.10;;;-3.50;99.90;;;;;;2061104;28;20280;-68
2023/02/28 05:05:53;;;;;;;5.35;4.30;;;-3.50;99.90;;;;;;2067007;28;20187;-67
2023/02/28 05:07:00;;;;;;;7.65;4.15;;;-3.50;99.90;;;;;;2069820;28;20187;-68
2023/02/28 05:08:05;;;;;;;7.00;4.50;;;-3.60;99.90;;;;;;2068046;28;20197;-68
2023/02/28 05:09:06;;;;;;;7.32;4.88;;;-3.60;99.90;;;;;;2068911;28;20551;-67
2023/02/28 05:10:07;;;;;;;8.27;5.03;;;-3.60;99.90;;;;;;2069236;28;20272;-67
2023/02/28 05:11:24;;;;;;;7.18;4.15;;;-3.50;99.90;;;;;;2069837;28;20189;-67
2023/02/28 05:12:30;;;;;;;6.22;4.43;;;-3.70;99.90;;;;;;2069260;28;20207;-68
2023/02/28 05:13:35;;;;;;;6.38;4.15;;;-3.70;99.90;;;;;;2065997;28;20190;-67
2023/02/28 05:14:41;;;;;;;6.72;5.07;;;-3.70;99.90;;;;;;2069299;28;20186;-67
2023/02/28 05:15:47;;;;;;;9.50;4.93;;;-3.70;99.90;;;;;;2069562;28;20261;-67
2023/02/28 05:16:52;;;;;;;5.00;3.83;;;-3.80;99.90;;;;;;2069950;28;20589;-67
2023/02/28 05:17:58;;;;;;;5.22;4.18;;;-3.70;99.90;;;;;;2069518;28;20264;-68
2023/02/28 05:19:04;;;;;;;6.80;4.43;;;-3.70;99.90;;;;;;2065608;28;20235;-68
2023/02/28 05:20:10;;;;;;;7.82;4.55;;;-3.60;99.90;;;;;;2069311;28;20188;-68
2023/02/28 05:21:34;;;;;;;7.53;4.65;;;-3.70;99.90;;;;;;2060809;28;20180;-68
2023/02/28 05:22:41;;;;;;;9.60;4.80;;;-3.60;99.90;;;;;;2067204;28;20228;-68
2023/02/28 05:23:47;;;;;;;9.05;5.22;;;-3.70;99.90;;;;;;2065730;28;20172;-67
2023/02/28 05:24:52;;;;;;;11.48;6.63;;;-3.70;99.90;;;;;;2068652;28;20198;-67
2023/02/28 05:25:58;;;;;;;10.85;6.93;;;-3.60;99.90;;;;;;2069722;28;20245;-67
2023/02/28 05:27:04;;;;;;;8.98;5.50;;;-3.60;99.90;;;;;;2069879;28;20193;-67
2023/02/28 05:28:09;;;;;;;7.13;4.88;;;-3.60;99.90;;;;;;2069287;28;20185;-67
2023/02/28 05:29:15;;;;;;;6.80;4.45;;;-3.70;99.90;;;;;;2069306;28;20692;-67
2023/02/28 05:30:21;;;;;;;5.88;4.00;;;-3.60;99.90;;;;;;2068806;28;20190;-67
2023/02/28 05:31:26;;;;;;;5.65;4.20;;;-3.60;99.90;;;;;;2068979;28;20240;-67
2023/02/28 05:32:32;;;;;;;7.30;4.80;;;-3.80;99.90;;;;;;2066039;28;20191;-67
2023/02/28 05:33:39;;;;;;;6.00;4.72;;;-3.90;99.90;;;;;;2069467;28;20282;-67
2023/02/28 05:34:45;;;;;;;8.73;4.80;;;-3.90;99.90;;;;;;2068854;28;20185;-67
2023/02/28 05:35:50;;;;;;;7.40;4.93;;;-3.90;99.90;;;;;;2065735;28;20211;-67
2023/02/28 05:36:56;;;;;;;9.65;5.20;;;-4.00;99.90;;;;;;2069337;28;20178;-67
2023/02/28 05:38:02;;;;;;;11.23;5.13;;;-4.00;99.90;;;;;;2068574;28;20613;-67
2023/02/28 05:39:12;;;;;;;6.07;4.70;;;-3.90;99.90;;;;;;2069223;28;20172;-67
2023/02/28 05:40:20;;;;;;;6.20;4.50;;;-3.80;99.90;;;;;;2069867;28;20709;-67
2023/02/28 05:41:25;;;;;;;8.77;5.30;;;-3.80;99.90;;;;;;2065681;28;20736;-67
2023/02/28 05:42:32;;;;;;;7.93;5.43;;;-3.80;99.90;;;;;;2046143;29;20196;-67
2023/02/28 05:43:38;;;;;;;8.43;5.22;;;-3.80;99.90;;;;;;2055698;28;20676;-67
2023/02/28 05:44:43;;;;;;;6.75;4.55;;;-3.80;99.90;;;;;;2069248;28;20191;-67
2023/02/28 05:45:49;;;;;;;9.25;5.00;;;-3.80;99.90;;;;;;2054323;28;20200;-68
2023/02/28 05:46:55;;;;;;;7.03;4.95;;;-3.80;99.90;;;;;;2049848;28;20197;-67
2023/02/28 05:48:00;;;;;;;8.35;5.80;;;-3.80;99.90;;;;;;2061352;28;20189;-67
2023/02/28 05:49:04;;;;;;;8.43;5.20;;;-3.90;99.90;;;;;;2060436;28;20704;-67
2023/02/28 05:50:10;;;;;;;9.15;5.28;;;-3.90;99.90;;;;;;2057988;28;20243;-67
2023/02/28 05:51:16;;;;;;;6.93;5.25;;;-3.90;99.90;;;;;;2069447;28;20188;-67
2023/02/28 05:52:23;;;;;;;9.82;6.70;;;-3.80;99.90;;;;;;2069283;28;20184;-67
2023/02/28 05:53:29;;;;;;;9.25;5.57;;;-3.80;99.90;;;;;;2069931;28;20898;-67
2023/02/28 05:54:34;;;;;;;7.97;5.97;;;-3.70;99.90;;;;;;2069776;28;20204;-67
2023/02/28 05:55:41;;;;;;;6.57;4.75;;;-3.80;99.90;;;;;;2064094;28;20195;-67
2023/02/28 05:56:46;;;;;;;8.07;5.80;;;-3.80;99.90;;;;;;2066120;28;20185;-67
2023/02/28 05:57:52;;;;;;;8.63;6.75;;;-3.80;99.90;;;;;;2064969;28;20226;-67
2023/02/28 05:58:58;;;;;;;7.00;4.40;;;-3.80;99.90;;;;;;2066806;28;20675;-67
2023/02/28 06:00:04;;;;;;;7.20;5.45;;;-3.80;99.90;;;;;;2068964;28;20173;-67
2023/02/28 06:01:39;;;;;;;8.88;5.88;;;-3.90;99.90;;;;;;2068272;28;20740;-67
2023/02/28 06:02:43;;;;;;;8.30;5.30;;;-3.80;99.90;;;;;;2066721;28;20174;-67
2023/02/28 06:03:44;;;;;;;8.80;5.30;;;-3.80;99.90;;;;;;2061611;28;20311;-67
2023/02/28 06:04:50;;;;;;;8.63;5.38;;;-3.80;99.90;;;;;;2058322;28;20296;-67
2023/02/28 06:05:55;;;;;;;7.22;5.82;;;-3.80;99.90;;;;;;2057816;28;20200;-67